Résultats de la compétition "6 jours de l'Aveyron - Etape 5" du 08-08-2008 organisée par le comité départemental du 12 - Aveyron
     
  Télécharger le fichier CSV.  
     
     

 Circuit "Q"

Licence Nom Prénom Temps CN
précédent
Score sur
la course
Différence
2401DEVILLENelly0:37:1043574426+69
395BLASCONicole0:43:2533453789+444
701ABISSEGisele0:46:5729593504+545
14245RICHARDNicole0:47:3224633461+998
6886FRANTZFrancoise0:49:1328453343+498
5497COCAULTYvonne0:54:5030893000-89
3619LAGOIDETColette0:55:0325672988+421
8954BASTIEN-FATHNicole0:55:5819732940+967
5033THIEBAULTMonique0:56:4642282898-1330
2680KIEFFERMireille0:58:5827202790+70
1380DIEUDONNEMadeleine0:59:5742152744-1471
2557VOGTChristiane1:03:4133872583-804
3185PASCAUDClaire1:04:2420522555+503
145COUPATCatherine1:05:0727732526-247
3302JEANPIERREM-Therese1:05:2230142517-497
8121LEBIAN DEROMEAnnie1:05:4921142500+386
6443GEOFFROYNicole1:07:4323862429+43
16634BAUDOINAnnie1:10:2322442337+93
2182PROSTGisele1:11:0625372314-223
1098MULLERM-Anne1:16:4924052142-263
2546DESAINTJANAlice1:16:5520072139+132
12059GROSJEANA-Marie1:22:4218901989+99
6826DUVOUXFrance1:26:1527201907-813
15894LUDEWIG-JAMESCarol1:33:0517371767+30
17LEVEQUEPaulette1:37:5013911682+291
1444BEGUINOTM-Louise1:45:1613901563+173
9AULAGNONMireille2:29:04N/A1104N/A

  Indice de confiance du circuit (moyenne des différences entre CN et score sur la course des 3 à 10 premiers) : 302






 Retour